Terminal Aerodrome Forecast
Issued by NWS

Home | Current Version | Previous Version | Text Only | Print | Product List | Glossary On
Versions: 1 2 3 4 5 6 7 8 9 10 11 12 13 14 15
000
FTUS46 KOTX 230537
TAFMWH
TAF
KMWH 230537Z 2306/2406 26006KT P6SM SCT080
     FM230900 21009KT P6SM VCSH SCT040 BKN060
     FM231000 18009KT P6SM -SHRA BKN030 OVC050
     FM231300 22013KT P6SM SCT050 BKN070
     FM231700 21013G20KT P6SM VCSH BKN050
     FM240400 18010KT P6SM -RA OVC040=

USA.gov is the U.S. government's official web portal to all federal, state and local government web resources and services.